createdAt,value
2022-08-03T00:02:15.846Z,6.67
2022-08-03T00:04:42.397Z,4.60
2022-08-03T00:07:08.896Z,4.97
2022-08-03T00:09:35.553Z,6.23
2022-08-03T00:12:02.381Z,5.37
2022-08-03T00:14:28.774Z,6.27
2022-08-03T00:16:55.194Z,4.03
2022-08-03T00:19:21.593Z,5.90
2022-08-03T00:21:47.979Z,6.60
2022-08-03T00:24:14.368Z,4.63
2022-08-03T00:26:40.757Z,3.53
2022-08-03T00:29:07.156Z,5.37
2022-08-03T00:31:39.898Z,4.97
2022-08-03T00:34:18.121Z,5.47
2022-08-03T00:36:59.028Z,7.90
2022-08-03T00:39:25.451Z,4.37
2022-08-03T00:41:51.862Z,4.53
2022-08-03T00:44:18.295Z,7.23
2022-08-03T00:46:44.691Z,4.60
2022-08-03T00:49:11.183Z,4.50
2022-08-03T00:51:37.647Z,5.53
2022-08-03T00:54:04.699Z,4.33
2022-08-03T00:56:31.203Z,7.53
2022-08-03T00:58:58.746Z,7.70
2022-08-03T01:01:25.196Z,7.07
2022-08-03T01:03:51.625Z,11.40
2022-08-03T01:06:25.214Z,6.20
2022-08-03T01:09:01.459Z,4.90
2022-08-03T01:11:59.778Z,7.93
2022-08-03T01:14:34.411Z,5.60
2022-08-03T01:17:24.404Z,5.57
2022-08-03T01:20:06.627Z,7.87
2022-08-03T01:22:51.772Z,3.77
2022-08-03T01:25:39.180Z,3.80
2022-08-03T01:28:24.817Z,4.07
2022-08-03T01:30:55.507Z,6.53
2022-08-03T01:33:48.227Z,8.50
2022-08-03T01:36:18.032Z,3.87
2022-08-03T01:38:50.932Z,5.27
2022-08-03T01:41:21.548Z,3.17
2022-08-03T01:44:27.324Z,3.73
2022-08-03T01:46:38.727Z,4.97
2022-08-03T01:49:09.931Z,3.23
2022-08-03T01:52:03.464Z,3.43
2022-08-03T01:54:27.048Z,4.10
2022-08-03T01:56:56.701Z,5.17
2022-08-03T01:59:25.804Z,5.10
2022-08-03T02:02:28.416Z,4.80
2022-08-03T02:04:42.542Z,3.50
2022-08-03T02:07:10.319Z,5.57
2022-08-03T02:09:41.472Z,4.17
2022-08-03T02:12:10.176Z,2.97
2022-08-03T02:14:39.264Z,4.13
2022-08-03T02:17:07.793Z,5.33
2022-08-03T02:19:35.907Z,4.30
2022-08-03T02:22:03.963Z,5.33
2022-08-03T02:24:31.830Z,4.73
2022-08-03T02:26:59.734Z,3.73
2022-08-03T02:29:39.299Z,4.67
2022-08-03T02:32:12.475Z,5.87
2022-08-03T02:34:42.097Z,3.30
2022-08-03T02:37:11.680Z,3.87
2022-08-03T02:39:40.982Z,5.03
2022-08-03T02:42:12.188Z,5.17
2022-08-03T02:44:41.545Z,3.60
2022-08-03T02:47:10.417Z,3.67
2022-08-03T02:49:51.438Z,5.53
2022-08-03T02:52:21.329Z,5.27
2022-08-03T02:54:51.121Z,5.17
2022-08-03T02:57:20.060Z,5.27
2022-08-03T02:59:47.522Z,3.87
2022-08-03T03:02:16.581Z,4.63
2022-08-03T03:05:52.161Z,5.73
2022-08-03T03:07:38.430Z,4.93
2022-08-03T03:10:17.784Z,4.10
2022-08-03T03:12:46.565Z,3.83
2022-08-03T03:15:12.987Z,4.50
2022-08-03T03:17:39.661Z,3.93
2022-08-03T03:20:07.530Z,3.63
2022-08-03T03:22:34.588Z,5.37
2022-08-03T03:25:01.906Z,8.40
2022-08-03T03:27:28.440Z,5.20
2022-08-03T03:29:57.774Z,4.60
2022-08-03T03:32:24.439Z,4.70
2022-08-03T03:34:51.012Z,5.00
2022-08-03T03:37:17.578Z,4.83
2022-08-03T03:39:44.184Z,4.87
2022-08-03T03:42:10.989Z,4.07
2022-08-03T03:44:37.512Z,9.63
2022-08-03T03:47:04.252Z,9.90
2022-08-03T03:49:31.684Z,9.60
2022-08-03T03:51:58.433Z,12.50
2022-08-03T03:54:25.468Z,10.37
2022-08-03T03:56:55.664Z,10.87
2022-08-03T03:59:22.213Z,7.70
2022-08-03T04:01:48.785Z,6.27
2022-08-03T04:04:44.395Z,8.67
2022-08-03T04:07:29.180Z,15.57
2022-08-03T04:10:15.107Z,10.30
2022-08-03T04:12:50.583Z,10.10
2022-08-03T04:15:21.576Z,10.37
2022-08-03T04:17:51.408Z,16.20
2022-08-03T04:20:20.581Z,15.33
2022-08-03T04:22:51.252Z,12.87
2022-08-03T04:25:19.745Z,12.27
2022-08-03T04:28:07.922Z,9.90
2022-08-03T04:30:37.552Z,23.37
2022-08-03T04:33:06.256Z,19.53
2022-08-03T04:36:01.341Z,9.03
2022-08-03T04:38:21.292Z,8.80
2022-08-03T04:40:48.738Z,6.07
2022-08-03T04:43:18.428Z,7.50
2022-08-03T04:45:47.838Z,7.37
2022-08-03T04:48:15.473Z,5.03
2022-08-03T04:50:42.858Z,5.03
2022-08-03T04:53:09.453Z,3.73
2022-08-03T04:55:36.512Z,5.77
2022-08-03T04:58:04.357Z,5.73
2022-08-03T05:00:31.278Z,7.97
2022-08-03T05:02:57.947Z,6.00
2022-08-03T05:05:24.752Z,5.03
2022-08-03T05:07:51.578Z,6.10
2022-08-03T05:10:19.563Z,5.10
2022-08-03T05:12:48.068Z,5.93
2022-08-03T05:15:15.748Z,6.50
2022-08-03T05:17:42.697Z,6.47
2022-08-03T05:20:10.038Z,4.77
2022-08-03T05:22:36.438Z,8.43
2022-08-03T05:25:03.425Z,4.87
2022-08-03T05:27:29.877Z,3.97
2022-08-03T05:29:56.276Z,5.80
2022-08-03T05:32:42.652Z,6.70
2022-08-03T05:35:55.881Z,7.90
2022-08-03T05:37:55.792Z,4.00
2022-08-03T05:40:22.198Z,4.77
2022-08-03T05:42:48.628Z,4.47
2022-08-03T05:45:15.040Z,5.37
2022-08-03T05:47:44.156Z,4.70
2022-08-03T05:50:11.958Z,8.43
2022-08-03T05:52:39.110Z,3.30
2022-08-03T05:55:09.103Z,4.20
2022-08-03T05:57:36.355Z,7.80
2022-08-03T06:00:10.798Z,7.60
2022-08-03T06:02:39.873Z,4.63
2022-08-03T06:05:06.887Z,4.53
2022-08-03T06:07:33.288Z,3.80
2022-08-03T06:10:36.898Z,4.43
2022-08-03T06:12:49.426Z,6.77
2022-08-03T06:15:16.154Z,9.23
2022-08-03T06:17:49.567Z,4.23
2022-08-03T06:20:18.438Z,9.17
2022-08-03T06:22:50.980Z,6.70
2022-08-03T06:25:19.328Z,5.20
2022-08-03T06:27:47.822Z,7.10
2022-08-03T06:30:18.085Z,10.57
2022-08-03T06:32:51.667Z,7.17
2022-08-03T06:35:18.922Z,5.03
2022-08-03T06:37:47.458Z,3.17
2022-08-03T06:40:16.763Z,6.57
2022-08-03T06:42:50.710Z,4.73
2022-08-03T06:45:17.792Z,4.63
2022-08-03T06:47:44.589Z,5.07
2022-08-03T06:50:16.207Z,4.77
2022-08-03T06:52:43.861Z,4.60
2022-08-03T06:55:11.462Z,3.13
2022-08-03T06:57:37.915Z,4.53
2022-08-03T07:00:09.006Z,5.13
2022-08-03T07:02:39.804Z,6.33
2022-08-03T07:05:07.057Z,6.97
2022-08-03T07:07:33.510Z,3.67
2022-08-03T07:09:59.956Z,4.30
2022-08-03T07:12:28.540Z,3.60
2022-08-03T07:15:00.658Z,6.07
2022-08-03T07:17:28.390Z,6.47
2022-08-03T07:19:54.778Z,2.55
2022-08-03T07:22:21.179Z,4.25
2022-08-03T07:24:47.755Z,2.95
2022-08-03T07:27:16.303Z,5.43
2022-08-03T07:29:42.694Z,6.10
2022-08-03T07:32:09.376Z,6.10
2022-08-03T07:34:35.774Z,4.85
2022-08-03T07:37:02.170Z,7.35
2022-08-03T07:39:28.575Z,6.55
2022-08-03T07:41:55.017Z,4.63
2022-08-03T07:44:21.724Z,3.05
2022-08-03T07:46:48.189Z,5.85
2022-08-03T07:49:14.673Z,2.60
2022-08-03T07:51:41.126Z,5.50
2022-08-03T07:54:10.070Z,3.40
2022-08-03T07:56:37.590Z,7.40
2022-08-03T07:59:04.028Z,4.75
2022-08-03T08:01:32.730Z,4.30
2022-08-03T08:03:59.278Z,6.50
2022-08-03T08:06:25.683Z,4.43
2022-08-03T08:08:53.612Z,3.60
2022-08-03T08:11:22.228Z,4.00
2022-08-03T08:13:48.665Z,4.22
2022-08-03T08:16:15.084Z,3.28
2022-08-03T08:18:41.504Z,3.85
2022-08-03T08:21:08.730Z,2.38
2022-08-03T08:23:42.422Z,4.65
2022-08-03T08:26:10.477Z,3.30
2022-08-03T08:28:36.888Z,4.20
2022-08-03T08:31:03.341Z,3.75
2022-08-03T08:33:48.043Z,5.60
2022-08-03T08:36:16.768Z,2.28
2022-08-03T08:38:44.904Z,2.97
2022-08-03T08:41:12.890Z,2.42
2022-08-03T08:43:39.337Z,3.25
2022-08-03T08:46:08.350Z,2.53
2022-08-03T08:48:36.234Z,1.92
2022-08-03T08:51:05.444Z,3.58
2022-08-03T08:53:36.604Z,5.50
2022-08-03T08:56:04.336Z,1.92
2022-08-03T08:58:36.868Z,3.70
2022-08-03T09:01:04.797Z,4.28
2022-08-03T09:03:34.217Z,5.75
2022-08-03T09:06:02.151Z,3.35
2022-08-03T09:08:30.219Z,2.17
2022-08-03T09:10:56.672Z,2.78
2022-08-03T09:13:23.071Z,2.67
2022-08-03T09:16:08.488Z,3.53
2022-08-03T09:18:34.883Z,4.50
2022-08-03T09:21:30.604Z,3.28
2022-08-03T09:24:02.793Z,3.47
2022-08-03T09:26:31.609Z,7.90
2022-08-03T09:29:05.918Z,2.40
2022-08-03T09:31:43.263Z,3.65
2022-08-03T09:34:13.120Z,4.70
2022-08-03T09:36:48.319Z,2.85
2022-08-03T09:39:16.906Z,2.53
2022-08-03T09:41:45.800Z,2.67
2022-08-03T09:44:25.254Z,4.70
2022-08-03T09:46:56.332Z,4.00
2022-08-03T09:49:23.605Z,4.88
2022-08-03T09:52:32.975Z,2.88
2022-08-03T09:54:36.558Z,2.13
2022-08-03T09:57:03.200Z,3.05
2022-08-03T09:59:32.172Z,2.33
2022-08-03T10:02:00.585Z,3.88
2022-08-03T10:04:27.616Z,2.08
2022-08-03T10:07:09.278Z,3.72
2022-08-03T10:09:37.154Z,3.85
2022-08-03T10:12:13.784Z,2.08
2022-08-03T10:14:42.173Z,1.77
2022-08-03T10:17:09.689Z,3.40
2022-08-03T10:19:36.515Z,2.65
2022-08-03T10:22:06.937Z,1.27
2022-08-03T10:24:36.209Z,3.25
2022-08-03T10:27:07.989Z,1.83
2022-08-03T10:29:38.752Z,2.38
2022-08-03T10:32:14.586Z,1.52
2022-08-03T10:34:44.390Z,1.73
2022-08-03T10:37:13.386Z,3.67
2022-08-03T10:39:53.246Z,1.63
2022-08-03T10:42:28.266Z,5.55
2022-08-03T10:45:03.867Z,2.42
2022-08-03T10:47:31.532Z,2.50
2022-08-03T10:49:58.674Z,1.52
2022-08-03T10:52:30.308Z,2.60
2022-08-03T10:55:18.966Z,1.88
2022-08-03T10:57:58.517Z,1.55
2022-08-03T11:00:27.342Z,2.60
2022-08-03T11:03:06.693Z,9.48
2022-08-03T11:05:38.923Z,3.30
2022-08-03T11:08:23.121Z,1.25
2022-08-03T11:10:52.141Z,1.90
2022-08-03T11:13:20.844Z,1.50
2022-08-03T11:15:49.839Z,2.50
2022-08-03T11:18:16.989Z,2.20
2022-08-03T11:20:48.423Z,2.28
2022-08-03T11:23:16.923Z,2.20
2022-08-03T11:26:12.637Z,2.65
2022-08-03T11:28:40.489Z,4.75
2022-08-03T11:31:39.594Z,2.28
2022-08-03T11:34:10.209Z,1.63
2022-08-03T11:37:14.025Z,2.38
2022-08-03T11:39:46.368Z,1.40
2022-08-03T11:42:25.510Z,3.33
2022-08-03T11:44:54.000Z,3.33
2022-08-03T11:47:23.212Z,2.92
2022-08-03T11:49:51.296Z,5.00
2022-08-03T11:52:19.470Z,2.22
2022-08-03T11:54:56.986Z,2.35
2022-08-03T11:59:01.178Z,4.28
2022-08-03T12:00:21.776Z,2.03
2022-08-03T12:03:09.053Z,2.53
2022-08-03T12:05:51.212Z,2.33
2022-08-03T12:08:27.289Z,3.25
2022-08-03T12:10:54.836Z,4.30
2022-08-03T12:14:27.079Z,1.67
2022-08-03T12:16:10.115Z,1.90
2022-08-03T12:18:36.991Z,3.90
2022-08-03T12:21:06.587Z,2.42
2022-08-03T12:23:37.565Z,2.72
2022-08-03T12:26:06.845Z,3.70
2022-08-03T12:28:37.939Z,1.65
2022-08-03T12:31:07.338Z,2.58
2022-08-03T12:34:02.817Z,2.65
2022-08-03T12:36:32.429Z,2.85
2022-08-03T12:39:01.527Z,3.88
2022-08-03T12:41:39.803Z,3.85
2022-08-03T12:44:07.894Z,5.32
2022-08-03T12:46:34.259Z,1.75
2022-08-03T12:49:08.399Z,3.53
2022-08-03T12:51:44.153Z,1.77
2022-08-03T12:54:24.744Z,3.55
2022-08-03T12:56:57.614Z,3.10
2022-08-03T12:59:35.424Z,4.53
2022-08-03T13:02:16.143Z,2.80
2022-08-03T13:04:45.821Z,5.70
2022-08-03T13:07:14.509Z,3.30
2022-08-03T13:10:06.187Z,2.10
2022-08-03T13:12:46.682Z,4.40
2022-08-03T13:15:13.196Z,2.75
2022-08-03T13:17:40.872Z,1.58
2022-08-03T13:20:07.664Z,2.03
2022-08-03T13:22:34.603Z,2.42
2022-08-03T13:25:01.533Z,3.15
2022-08-03T13:28:03.952Z,6.82
2022-08-03T13:30:17.903Z,2.42
2022-08-03T13:32:58.235Z,4.97
2022-08-03T13:35:25.385Z,9.95
2022-08-03T13:37:53.004Z,3.75
2022-08-03T13:40:19.628Z,2.22
2022-08-03T13:42:50.194Z,2.20
2022-08-03T13:45:16.589Z,2.15
2022-08-03T13:47:43.041Z,2.95
2022-08-03T13:50:09.443Z,2.28
2022-08-03T13:52:36.403Z,3.33
2022-08-03T13:55:07.822Z,3.63
2022-08-03T13:58:03.860Z,3.10
2022-08-03T14:00:27.640Z,1.92
2022-08-03T14:03:06.713Z,2.65
2022-08-03T14:05:39.399Z,4.53
2022-08-03T14:08:07.033Z,4.57
2022-08-03T14:10:35.362Z,4.35
2022-08-03T14:13:01.856Z,5.00
2022-08-03T14:15:28.778Z,3.42
2022-08-03T14:17:56.384Z,5.15
2022-08-03T14:20:37.734Z,2.92
2022-08-03T14:23:12.809Z,3.65
2022-08-03T14:25:44.259Z,4.38
2022-08-03T14:28:17.337Z,1.80
2022-08-03T14:30:43.750Z,3.17
2022-08-03T14:33:10.174Z,1.98
2022-08-03T14:35:36.697Z,1.90
2022-08-03T14:38:03.091Z,2.08
2022-08-03T14:40:29.501Z,2.22
2022-08-03T14:42:55.933Z,3.85
2022-08-03T14:45:22.345Z,3.70
2022-08-03T14:50:29.392Z,2.88
2022-08-03T14:50:42.874Z,1.83
2022-08-03T14:53:12.450Z,1.98
2022-08-03T14:55:50.729Z,3.53
2022-08-03T14:58:20.586Z,2.28
2022-08-03T15:00:48.899Z,3.05
2022-08-03T15:03:16.860Z,1.83
2022-08-03T15:05:43.813Z,3.15
2022-08-03T15:08:10.229Z,3.92
2022-08-03T15:10:40.450Z,2.40
2022-08-03T15:13:11.226Z,2.50
2022-08-03T15:15:37.610Z,2.30
2022-08-03T15:18:04.208Z,3.50
2022-08-03T15:20:42.975Z,1.83
2022-08-03T15:23:11.945Z,2.60
2022-08-03T15:26:32.241Z,1.70
2022-08-03T15:28:24.775Z,3.03
2022-08-03T15:30:52.857Z,3.47
2022-08-03T15:33:19.285Z,1.88
2022-08-03T15:35:47.298Z,2.95
2022-08-03T15:38:13.713Z,2.42
2022-08-03T15:40:40.535Z,2.53
2022-08-03T15:43:07.388Z,4.80
2022-08-03T15:45:36.387Z,2.63
2022-08-03T15:48:07.140Z,2.75
2022-08-03T15:50:33.624Z,2.67
2022-08-03T15:53:00.079Z,2.30
2022-08-03T15:55:26.702Z,3.80
2022-08-03T15:59:11.423Z,5.30
2022-08-03T16:00:40.559Z,7.97
2022-08-03T16:03:07.246Z,3.67
2022-08-03T16:05:33.909Z,4.13
2022-08-03T16:08:03.829Z,2.25
2022-08-03T16:10:32.187Z,2.95
2022-08-03T16:12:59.810Z,4.40
2022-08-03T16:15:26.221Z,2.95
2022-08-03T16:17:52.844Z,4.82
2022-08-03T16:20:30.882Z,3.72
2022-08-03T16:23:07.756Z,4.55
2022-08-03T16:25:39.805Z,3.00
2022-08-03T16:28:13.138Z,3.38
2022-08-03T16:30:41.233Z,2.80
2022-08-03T16:33:07.701Z,3.08
2022-08-03T16:35:34.184Z,3.10
2022-08-03T16:38:00.759Z,3.80
2022-08-03T16:40:27.277Z,3.78
2022-08-03T16:42:54.213Z,3.22
2022-08-03T16:45:21.103Z,2.58
2022-08-03T16:47:47.551Z,2.88
2022-08-03T16:50:28.849Z,5.13
2022-08-03T16:52:55.249Z,2.75
2022-08-03T16:55:48.622Z,2.30
2022-08-03T16:58:08.152Z,3.53
2022-08-03T17:00:41.462Z,4.07
2022-08-03T17:03:12.463Z,3.55
2022-08-03T17:05:47.030Z,5.47
2022-08-03T17:08:15.013Z,3.30
2022-08-03T17:10:45.038Z,4.47
2022-08-03T17:13:21.680Z,6.32
2022-08-03T17:16:00.848Z,3.58
2022-08-03T17:18:34.018Z,4.35
2022-08-03T17:21:05.791Z,4.90
2022-08-03T17:23:47.999Z,3.28
2022-08-03T17:26:21.079Z,3.78
2022-08-03T17:28:57.695Z,4.18
2022-08-03T17:31:31.558Z,4.05
2022-08-03T17:34:01.677Z,2.80
2022-08-03T17:37:00.924Z,3.47
2022-08-03T17:39:21.104Z,3.05
2022-08-03T17:42:00.807Z,2.92
2022-08-03T17:44:31.087Z,3.85
2022-08-03T17:47:02.045Z,4.07
2022-08-03T17:49:29.023Z,4.65
2022-08-03T17:52:06.750Z,3.97
2022-08-03T17:55:54.861Z,3.00
2022-08-03T17:58:01.335Z,3.97
2022-08-03T18:00:47.742Z,4.60
2022-08-03T18:03:27.686Z,6.28
2022-08-03T18:06:10.987Z,3.40
2022-08-03T18:08:46.108Z,5.00
2022-08-03T18:11:16.281Z,4.55
2022-08-03T18:14:09.974Z,3.50
2022-08-03T18:16:52.143Z,5.80
2022-08-03T18:19:20.581Z,5.93
2022-08-03T18:22:09.965Z,10.98
2022-08-03T18:24:37.234Z,9.00
2022-08-03T18:27:05.524Z,13.52
2022-08-03T18:29:35.447Z,16.65
2022-08-03T18:32:06.071Z,15.65
2022-08-03T18:34:36.383Z,16.65
2022-08-03T18:37:08.426Z,8.02
2022-08-03T18:39:49.641Z,7.72
2022-08-03T18:42:19.637Z,7.30
2022-08-03T18:44:54.278Z,4.22
2022-08-03T18:47:56.962Z,5.10
2022-08-03T18:50:33.925Z,3.53
2022-08-03T18:53:15.605Z,4.75
2022-08-03T18:56:08.531Z,4.00
2022-08-03T18:59:02.151Z,9.55
2022-08-03T19:01:59.904Z,7.72
2022-08-03T19:04:46.059Z,9.82
2022-08-03T19:07:17.409Z,6.63
2022-08-03T19:09:54.354Z,6.20
2022-08-03T19:12:32.545Z,6.40
2022-08-03T19:15:12.635Z,5.75
2022-08-03T19:17:41.966Z,5.75
2022-08-03T19:20:21.906Z,9.35
2022-08-03T19:22:50.903Z,55.40
2022-08-03T19:25:18.469Z,28.00
2022-08-03T19:27:47.054Z,14.32
2022-08-03T19:30:35.732Z,13.07
2022-08-03T19:33:08.604Z,6.75
2022-08-03T19:35:51.634Z,10.98
2022-08-03T19:38:28.803Z,23.33
2022-08-03T19:40:59.645Z,23.58
2022-08-03T19:43:52.894Z,33.17
2022-08-03T19:46:22.437Z,23.75
2022-08-03T19:49:16.254Z,45.15
2022-08-03T19:52:00.704Z,38.72
2022-08-03T19:54:36.677Z,13.23
2022-08-03T19:57:17.539Z,7.35
2022-08-03T19:59:50.172Z,9.07
2022-08-03T20:02:27.004Z,5.82
2022-08-03T20:04:55.323Z,8.00
2022-08-03T20:07:22.940Z,6.60
2022-08-03T20:09:56.108Z,5.28
2022-08-03T20:15:11.187Z,7.35
2022-08-03T20:17:56.748Z,8.15
2022-08-03T20:20:32.112Z,21.05
2022-08-03T20:23:00.617Z,57.50
2022-08-03T20:25:38.088Z,68.03
2022-08-03T20:28:17.092Z,24.80
2022-08-03T20:30:47.220Z,14.77
2022-08-03T20:33:45.775Z,9.60
2022-08-03T20:36:13.523Z,8.18
2022-08-03T20:38:46.871Z,7.57
2022-08-03T20:41:13.629Z,11.20
2022-08-03T20:43:42.437Z,6.68
2022-08-03T20:46:31.700Z,7.90
2022-08-03T20:48:57.334Z,5.32
2022-08-03T20:51:50.678Z,8.35
2022-08-03T20:54:29.733Z,7.10
2022-08-03T20:57:00.705Z,5.65
2022-08-03T20:59:46.799Z,7.97
2022-08-03T21:02:19.731Z,5.40
2022-08-03T21:04:57.241Z,6.90
2022-08-03T21:07:24.228Z,7.37
2022-08-03T21:09:53.371Z,7.53
2022-08-03T21:12:38.661Z,8.50
2022-08-03T21:13:08.247Z,7.43
2022-08-03T21:15:09.684Z,5.67
2022-08-03T21:17:58.232Z,5.60
2022-08-03T21:20:30.724Z,6.93
2022-08-03T21:22:59.024Z,7.90
2022-08-03T21:25:28.380Z,8.47
2022-08-03T21:27:55.917Z,8.57
2022-08-03T21:30:24.574Z,7.43
2022-08-03T21:32:52.592Z,10.60
2022-08-03T21:35:20.289Z,8.80
2022-08-03T21:37:47.331Z,7.87
2022-08-03T21:40:15.912Z,7.20
2022-08-03T21:42:44.860Z,8.50
2022-08-03T21:45:17.085Z,9.43
2022-08-03T21:47:45.161Z,8.27
2022-08-03T21:50:13.253Z,8.97
2022-08-03T21:52:44.698Z,9.87
2022-08-03T21:55:20.508Z,8.27
2022-08-03T21:57:51.979Z,9.53
2022-08-03T22:00:21.867Z,8.03
2022-08-03T22:02:54.820Z,7.80
2022-08-03T22:05:43.036Z,10.23
2022-08-03T22:08:13.261Z,8.77
2022-08-03T22:10:40.866Z,8.57
2022-08-03T22:13:07.421Z,8.03
2022-08-03T22:15:33.877Z,8.30
2022-08-03T22:18:03.513Z,10.83
2022-08-03T22:20:30.232Z,10.60
2022-08-03T22:23:01.014Z,10.47
2022-08-03T22:25:30.597Z,12.50
2022-08-03T22:28:06.020Z,10.20
2022-08-03T22:30:33.260Z,8.37
2022-08-03T22:33:02.005Z,12.33
2022-08-03T22:35:29.440Z,8.03
2022-08-03T22:37:57.920Z,8.97
2022-08-03T22:40:25.791Z,8.87
2022-08-03T22:42:52.686Z,8.13
2022-08-03T22:46:06.910Z,8.23
2022-08-03T22:48:07.724Z,12.70
2022-08-03T22:50:34.654Z,7.63
2022-08-03T22:53:01.410Z,9.27
2022-08-03T22:55:28.301Z,7.43
2022-08-03T22:57:55.941Z,8.53
2022-08-03T23:00:24.089Z,11.23
2022-08-03T23:02:51.262Z,7.83
2022-08-03T23:06:01.225Z,8.67
2022-08-03T23:08:12.274Z,9.17
2022-08-03T23:10:44.859Z,7.77
2022-08-03T23:13:14.477Z,10.47
2022-08-03T23:15:41.358Z,8.37
2022-08-03T23:18:09.404Z,8.33
2022-08-03T23:20:37.726Z,7.40
2022-08-03T23:23:05.071Z,10.90
2022-08-03T23:25:32.673Z,12.50
2022-08-03T23:28:04.985Z,10.50
2022-08-03T23:30:34.499Z,8.97
2022-08-03T23:33:02.808Z,10.80
2022-08-03T23:36:27.552Z,8.97
2022-08-03T23:38:36.180Z,7.90
2022-08-03T23:41:04.689Z,8.07
2022-08-03T23:43:44.746Z,9.43
2022-08-03T23:46:23.940Z,9.50
2022-08-03T23:48:51.060Z,10.57
2022-08-03T23:51:29.530Z,8.80
2022-08-03T23:54:03.237Z,8.30
2022-08-03T23:56:59.596Z,12.20
2022-08-03T23:59:41.111Z,7.63
